Dickinson's Hourly Summary for Saturday, March 18, 2017
Hour Temp
(f)
RH
(%)
Solar Rad.
(MJ/m2)
Rainfall
(in)
Wind
(mph)
3/18/2017 12:00 AM 67 90 0 0 2.04
3/18/2017 1:00 AM 66 92 0 0 0.97
3/18/2017 2:00 AM 66 97 0 0 0.26
3/18/2017 3:00 AM 64 99 0 0 0
3/18/2017 4:00 AM 63 99 0 0 0
3/18/2017 5:00 AM 62 99 0 0 0
3/18/2017 6:00 AM 61 99 0 0 0
3/18/2017 7:00 AM 62 99 0 0 0
3/18/2017 8:00 AM 62 99 0.04 0 0
3/18/2017 9:00 AM 66 99 0.36 0 0.37
3/18/2017 10:00 AM 71 82 1.11 0 3.14
3/18/2017 11:00 AM 74 73 1.53 0 4.81
3/18/2017 12:00 PM 76 67 1.84 0 4.48
3/18/2017 1:00 PM 76 66 1.81 0 3.72
3/18/2017 2:00 PM 77 65 2.24 0 5.27
3/18/2017 3:00 PM 77 66 2.23 0 6.46
3/18/2017 4:00 PM 77 68 1.92 0 6.52
3/18/2017 5:00 PM 76 68 1.16 0 6.41
3/18/2017 6:00 PM 76 67 1.05 0 5.46
3/18/2017 7:00 PM 74 72 0.36 0 4.56
3/18/2017 8:00 PM 72 78 0.03 0 3.04
3/18/2017 9:00 PM 70 88 0 0 2.4
3/18/2017 10:00 PM 69 97 0 0 2.31
3/18/2017 11:00 PM 68 99 0 0 1.58
Data Summary 69 84 15.68 0.00 2.66